TimeEDT,TemperatureF,Dew PointF,Humidity,Sea Level PressureIn,VisibilityMPH,Wind Direction,Wind SpeedMPH,Gust SpeedMPH,PrecipitationIn,Events,Conditions,WindDirDegrees,DateUTC
12:54 AM,52.0,50.0,93,30.21,10.0,Calm,Calm,-,N/A,,Overcast,0,2013-10-30 04:54:00
1:54 AM,53.1,51.1,93,30.20,10.0,Calm,Calm,-,N/A,,Overcast,0,2013-10-30 05:54:00
2:54 AM,52.0,51.1,97,30.19,10.0,Calm,Calm,-,0.01,Rain,Light Rain,0,2013-10-30 06:54:00
3:54 AM,52.0,52.0,100,30.19,10.0,Calm,Calm,-,0.01,Rain,Light Rain,0,2013-10-30 07:54:00
4:34 AM,51.8,51.8,100,30.19,6.0,Calm,Calm,-,0.01,Rain,Light Rain,0,2013-10-30 08:34:00
4:54 AM,52.0,52.0,100,30.19,5.0,Calm,Calm,-,0.03,Rain,Rain,0,2013-10-30 08:54:00
5:41 AM,51.8,51.8,100,30.20,4.0,Calm,Calm,-,0.03,Rain,Rain,0,2013-10-30 09:41:00
5:54 AM,52.0,52.0,100,30.19,4.0,NNE,3.5,-,0.04,Rain,Light Rain,20,2013-10-30 09:54:00
6:26 AM,51.8,51.8,100,30.19,1.0,East,4.6,-,0.01,Rain,Light Rain,80,2013-10-30 10:26:00
6:54 AM,53.1,53.1,100,30.19,1.0,Calm,Calm,-,0.05,Rain,Light Rain,0,2013-10-30 10:54:00
7:24 AM,51.8,51.8,100,30.19,1.0,Calm,Calm,-,0.02,Rain,Light Rain,0,2013-10-30 11:24:00
7:37 AM,53.6,53.6,100,30.19,0.5,Calm,Calm,-,0.05,Fog-Rain,Rain,0,2013-10-30 11:37:00
7:54 AM,53.1,53.1,100,30.19,0.5,Calm,Calm,-,0.08,Fog-Rain,Rain,0,2013-10-30 11:54:00
8:54 AM,54.0,54.0,100,30.19,0.5,Calm,Calm,-,0.04,Fog-Rain,Light Rain,0,2013-10-30 12:54:00
9:54 AM,55.0,55.0,100,30.20,1.5,Calm,Calm,-,0.00,,Overcast,0,2013-10-30 13:54:00
10:13 AM,55.4,55.4,100,30.20,6.0,Calm,Calm,-,N/A,,Overcast,0,2013-10-30 14:13:00
10:54 AM,55.9,55.9,100,30.21,6.0,South,4.6,-,N/A,,Overcast,190,2013-10-30 14:54:00
11:54 AM,59.0,59.0,100,30.20,4.0,SW,5.8,-,N/A,,Overcast,230,2013-10-30 15:54:00
11:57 AM,59.0,59.0,100,30.20,2.0,SW,4.6,-,N/A,,Overcast,230,2013-10-30 15:57:00
12:25 PM,60.8,59.0,94,30.20,2.0,WSW,3.5,-,N/A,,Overcast,250,2013-10-30 16:25:00
12:54 PM,60.1,59.0,96,30.19,2.0,WSW,4.6,-,N/A,,Overcast,250,2013-10-30 16:54:00
1:54 PM,61.0,60.1,97,30.17,2.0,Calm,Calm,-,0.01,Rain,Light Rain,0,2013-10-30 17:54:00
2:54 PM,61.0,60.1,97,30.15,2.0,Calm,Calm,-,0.00,,Overcast,0,2013-10-30 18:54:00
3:38 PM,62.6,60.8,94,30.14,2.0,Calm,Calm,-,N/A,,Overcast,0,2013-10-30 19:38:00
3:54 PM,62.1,61.0,96,30.13,2.0,ESE,3.5,-,N/A,,Overcast,120,2013-10-30 19:54:00
3:56 PM,62.6,60.8,94,30.14,4.0,Calm,Calm,-,N/A,,Overcast,0,2013-10-30 19:56:00
4:54 PM,62.1,61.0,96,30.15,6.0,Calm,Calm,-,N/A,,Overcast,0,2013-10-30 20:54:00
5:11 PM,62.6,60.8,94,30.15,6.0,Calm,Calm,-,N/A,,Overcast,0,2013-10-30 21:11:00
5:54 PM,62.1,61.0,96,30.14,6.0,NNE,3.5,-,N/A,,Overcast,30,2013-10-30 21:54:00
6:54 PM,61.0,61.0,100,30.14,5.0,Calm,Calm,-,N/A,,Overcast,0,2013-10-30 22:54:00
7:54 PM,61.0,61.0,100,30.16,5.0,Calm,Calm,-,N/A,,Overcast,0,2013-10-30 23:54:00
8:38 PM,60.8,60.8,100,30.15,4.0,Calm,Calm,-,N/A,,Overcast,0,2013-10-31 00:38:00
8:54 PM,60.1,60.1,100,30.14,4.0,Calm,Calm,-,N/A,,Overcast,0,2013-10-31 00:54:00
9:39 PM,60.8,60.8,100,30.14,4.0,Calm,Calm,-,N/A,,Overcast,0,2013-10-31 01:39:00
9:54 PM,60.1,60.1,100,30.14,4.0,Calm,Calm,-,N/A,,Overcast,0,2013-10-31 01:54:00
10:54 PM,59.0,59.0,100,30.13,4.0,Calm,Calm,-,N/A,,Overcast,0,2013-10-31 02:54:00
11:31 PM,59.0,59.0,100,30.12,4.0,Calm,Calm,-,N/A,,Overcast,0,2013-10-31 03:31:00
11:54 PM,57.9,57.9,100,30.10,4.0,Calm,Calm,-,N/A,,Overcast,0,2013-10-31 03:54:00